Time;durP1;ratioP1;P1;durP2;ratioP2;P2;SDS_P1;SDS_P2;PMS_P1;PMS_P2;Temp;Humidity;BMP_temperature;BMP_pressure;BME280_temperature;BME280_humidity;BME280_pressure;Samples;Min_cycle;Max_cycle;Signal;HPM_P1;HPM_P2
2021/09/09 00:00:54;;;;;;;17.25;7.10;;;;;;;8.25;69.70;101778.92;1729795;83;21267;-60
2021/09/09 00:03:27;;;;;;;14.35;5.95;;;;;;;8.26;69.69;101779.34;1729805;83;21277;-60
2021/09/09 00:06:01;;;;;;;;;;;;;;;8.26;69.73;101774.13;1732212;83;21278;-60
2021/09/09 00:08:33;;;;;;;18.35;7.12;;;;;;;8.27;69.69;101777.09;1729060;83;20229;-59
2021/09/09 00:11:08;;;;;;;16.75;6.47;;;;;;;8.23;69.60;101782.09;1728157;83;21144;-60
2021/09/09 00:13:41;;;;;;;16.65;6.85;;;;;;;8.22;69.64;101779.08;1729921;83;21251;-59
2021/09/09 00:16:17;;;;;;;14.95;7.03;;;;;;;8.21;69.61;101779.18;1728143;83;21155;-60
2021/09/09 00:18:50;;;;;;;14.95;6.60;;;;;;;8.18;69.60;101782.80;1728904;83;21297;-60
2021/09/09 00:21:26;;;;;;;19.17;6.70;;;;;;;8.13;69.61;101783.05;1728375;83;21151;-60
2021/09/09 00:24:00;;;;;;;20.68;7.45;;;;;;;8.08;69.77;101782.45;1730206;83;21171;-60
2021/09/09 00:26:34;;;;;;;17.12;5.60;;;;;;;8.03;69.83;101779.70;1729435;83;21280;-60
2021/09/09 00:29:08;;;;;;;15.15;5.83;;;;;;;7.99;69.91;101776.44;1729073;83;21255;-60
2021/09/09 00:31:41;;;;;;;15.87;5.87;;;;;;;7.97;69.85;101776.98;1729601;83;21290;-60
2021/09/09 00:34:15;;;;;;;;;;;;;;;7.93;69.81;101774.59;1731714;83;21727;-60
2021/09/09 00:36:47;;;;;;;12.43;5.67;;;;;;;7.93;69.81;101777.20;1729573;83;20237;-60
2021/09/09 00:39:21;;;;;;;17.30;6.80;;;;;;;7.90;69.82;101781.30;1728892;83;21216;-60
2021/09/09 00:41:54;;;;;;;17.20;7.07;;;;;;;7.89;69.72;101781.76;1729815;83;21283;-59
2021/09/09 00:44:28;;;;;;;16.75;6.97;;;;;;;7.89;69.74;101787.43;1729917;83;21250;-60
2021/09/09 00:47:06;;;;;;;12.50;6.12;;;;;;;7.86;69.87;101798.86;1729352;83;21283;-60
2021/09/09 00:49:42;;;;;;;14.70;6.17;;;;;;;7.87;70.03;101790.59;1728593;83;21262;-59
2021/09/09 00:52:15;;;;;;;16.77;6.45;;;;;;;7.86;69.99;101796.25;1729069;83;21286;-60
2021/09/09 00:54:49;;;;;;;14.25;6.03;;;;;;;7.88;70.12;101793.10;1730021;83;21290;-60
2021/09/09 00:57:22;;;;;;;14.73;6.25;;;;;;;7.89;70.06;101790.03;1729577;83;21164;-59
2021/09/09 00:59:55;;;;;;;14.40;5.97;;;;;;;7.89;70.02;101790.89;1728766;83;21286;-60
2021/09/09 01:02:28;;;;;;;11.87;6.47;;;;;;;7.89;70.01;101788.73;1729335;83;21845;-59
2021/09/09 01:05:01;;;;;;;16.48;8.18;;;;;;;7.88;69.77;101794.41;1729901;83;21290;-59
2021/09/09 01:07:34;;;;;;;13.88;7.17;;;;;;;7.88;69.63;101788.38;1729538;83;21347;-59
2021/09/09 01:10:08;;;;;;;12.87;6.03;;;;;;;7.87;69.59;101796.65;1729122;83;21298;-60
2021/09/09 01:12:42;;;;;;;13.85;6.40;;;;;;;7.85;69.46;101792.44;1729138;83;21838;-59
2021/09/09 01:15:17;;;;;;;14.20;5.95;;;;;;;7.79;69.45;101793.59;1729746;83;21254;-60
2021/09/09 01:17:51;;;;;;;11.50;5.83;;;;;;;7.74;69.44;101787.77;1728945;83;21143;-59
2021/09/09 01:20:24;;;;;;;16.23;6.40;;;;;;;7.70;69.56;101788.02;1728557;83;21724;-59
2021/09/09 01:22:57;;;;;;;13.38;6.45;;;;;;;7.66;69.76;101786.05;1729180;83;21352;-59
2021/09/09 01:25:30;;;;;;;14.13;6.60;;;;;;;7.65;69.97;101784.81;1729853;83;21258;-61
2021/09/09 01:28:04;;;;;;;10.13;4.77;;;;;;;7.60;70.16;101783.75;1729249;83;21218;-61
2021/09/09 01:30:38;;;;;;;12.73;6.50;;;;;;;7.57;70.33;101786.99;1728853;83;21172;-60
2021/09/09 01:33:12;;;;;;;13.78;6.12;;;;;;;7.53;70.48;101784.99;1728966;83;21208;-60
2021/09/09 01:35:45;;;;;;;15.13;5.60;;;;;;;7.47;70.62;101784.02;1729202;83;21214;-60
2021/09/09 01:38:22;;;;;;;7.43;4.37;;;;;;;7.42;70.81;101782.96;1729442;83;21279;-60
2021/09/09 01:40:55;;;;;;;17.40;6.00;;;;;;;7.36;70.96;101774.14;1729744;83;21298;-60
2021/09/09 01:43:28;;;;;;;16.20;6.08;;;;;;;7.36;71.09;101778.50;1729167;83;21160;-60
2021/09/09 01:46:01;;;;;;;14.03;6.70;;;;;;;7.35;71.19;101776.83;1729970;83;21266;-60
2021/09/09 01:48:34;;;;;;;17.60;6.73;;;;;;;7.34;71.23;101771.23;1729804;83;21274;-60
2021/09/09 01:51:07;;;;;;;19.03;6.43;;;;;;;7.32;71.25;101775.23;1730346;83;21382;-60
2021/09/09 01:53:41;;;;;;;15.93;6.85;;;;;;;7.32;71.29;101770.02;1729249;83;21322;-60
2021/09/09 01:56:15;;;;;;;16.23;6.93;;;;;;;7.29;71.36;101768.86;1729972;83;21297;-59
2021/09/09 01:58:49;;;;;;;20.50;7.10;;;;;;;7.30;71.49;101771.02;1728860;83;21286;-58
2021/09/09 02:01:22;;;;;;;19.17;6.60;;;;;;;7.27;71.64;101765.95;1730361;83;21178;-60
2021/09/09 02:03:55;;;;;;;;;;;;;;;7.23;71.85;101763.98;1731402;83;21290;-61
2021/09/09 02:06:28;;;;;;;14.95;5.92;;;;;;;7.20;72.03;101771.94;1729746;83;20169;-61
2021/09/09 02:09:03;;;;;;;16.40;6.35;;;;;;;7.14;72.25;101773.53;1729192;83;21167;-60
2021/09/09 02:11:36;;;;;;;15.72;6.80;;;;;;;7.13;72.43;101775.78;1730066;83;21709;-60
2021/09/09 02:14:09;;;;;;;16.70;7.50;;;;;;;7.13;72.68;101774.93;1729084;83;21289;-61
2021/09/09 02:16:42;;;;;;;;;;;;;;;7.13;72.73;101770.56;1730796;83;21179;-60
2021/09/09 02:19:15;;;;;;;11.80;6.97;;;;;;;7.11;72.79;101771.56;1728750;83;20236;-60
2021/09/09 02:21:49;;;;;;;14.25;6.55;;;;;;;7.07;72.98;101770.05;1730136;83;21278;-60
2021/09/09 02:24:22;;;;;;;16.75;6.53;;;;;;;7.04;73.10;101772.80;1729050;83;21331;-60
2021/09/09 02:26:55;;;;;;;15.10;6.40;;;;;;;7.03;73.26;101776.30;1730372;83;21238;-60
2021/09/09 02:29:29;;;;;;;13.03;7.12;;;;;;;7.01;73.32;101778.14;1729131;83;21289;-60
2021/09/09 02:32:02;;;;;;;13.40;5.67;;;;;;;6.98;73.34;101778.29;1729826;83;21135;-60
2021/09/09 02:34:36;;;;;;;13.60;5.85;;;;;;;6.96;73.43;101781.44;1729074;83;21286;-60
2021/09/09 02:37:09;;;;;;;16.90;6.30;;;;;;;6.92;73.45;101778.61;1736479;82;21338;-60
2021/09/09 02:39:46;;;;;;;;;;;;;;;6.90;73.49;101780.00;1741789;82;21148;-60
2021/09/09 02:42:16;;;;;;;17.60;6.10;;;;;;;6.89;73.53;101776.15;1740938;82;20193;-60
2021/09/09 02:44:49;;;;;;;18.75;6.60;;;;;;;6.86;73.55;101777.59;1740053;82;21300;-60
2021/09/09 02:47:22;;;;;;;18.00;6.28;;;;;;;6.85;73.59;101778.53;1741409;82;21121;-60
2021/09/09 02:49:56;;;;;;;;;;;;;;;6.85;73.67;101777.23;1742527;82;21182;-60
2021/09/09 02:52:29;;;;;;;14.43;6.28;;;;;;;6.86;73.67;101769.78;1717956;82;20253;-60
2021/09/09 02:55:02;;;;;;;;;;;;;;;6.82;73.62;101769.56;1742654;82;21292;-58
2021/09/09 02:57:35;;;;;;;17.07;7.67;;;;;;;6.78;73.66;101776.20;1741251;82;20201;-59
2021/09/09 03:00:09;;;;;;;16.40;7.47;;;;;;;6.75;73.74;101771.63;1740165;82;21288;-58
2021/09/09 03:02:43;;;;;;;22.52;7.80;;;;;;;6.76;73.80;101778.50;1741099;82;21786;-58
2021/09/09 03:05:17;;;;;;;15.63;7.78;;;;;;;6.78;73.91;101778.81;1740332;82;21835;-59
2021/09/09 03:07:50;;;;;;;34.83;14.58;;;;;;;6.78;73.91;101778.81;1741344;82;21264;-58
2021/09/09 03:10:23;;;;;;;32.67;19.98;;;;;;;6.83;73.94;101785.09;1740359;82;21228;-58
2021/09/09 03:12:57;;;;;;;36.50;20.27;;;;;;;6.87;74.00;101793.61;1741030;82;21259;-58
2021/09/09 03:15:30;;;;;;;;;;;;;;;6.93;73.98;101788.94;1741916;82;21226;-59
2021/09/09 03:18:03;;;;;;;41.60;21.35;;;;;;;6.99;73.95;101786.50;1740936;82;20170;-58
2021/09/09 03:20:36;;;;;;;36.33;18.67;;;;;;;7.03;73.90;101794.53;1740226;82;21394;-58
2021/09/09 03:23:09;;;;;;;;;;;;;;;7.07;73.74;101792.17;1742111;82;21172;-59
2021/09/09 03:25:42;;;;;;;35.73;18.17;;;;;;;7.12;73.73;101792.31;1739311;82;20196;-58
2021/09/09 03:28:16;;;;;;;40.08;20.80;;;;;;;7.18;73.66;101786.81;1739407;82;21184;-59
2021/09/09 03:30:49;;;;;;;38.90;22.10;;;;;;;7.25;73.56;101795.15;1740366;82;21181;-59
2021/09/09 03:33:23;;;;;;;46.53;22.05;;;;;;;7.34;73.53;101794.22;1741466;82;21256;-59
2021/09/09 03:35:56;;;;;;;37.20;20.20;;;;;;;7.42;73.40;101789.47;1740368;82;21341;-60
2021/09/09 03:38:29;;;;;;;39.08;20.88;;;;;;;7.56;73.27;101794.42;1740128;82;22047;-59
2021/09/09 03:41:02;;;;;;;40.00;20.75;;;;;;;7.72;73.13;101793.53;1740081;82;21284;-60
2021/09/09 03:43:36;;;;;;;44.13;22.13;;;;;;;7.87;72.83;101791.89;1741584;82;21252;-59
2021/09/09 03:46:10;;;;;;;45.45;23.65;;;;;;;7.97;72.46;101791.33;1740113;82;21287;-60
2021/09/09 03:48:43;;;;;;;59.35;29.77;;;;;;;8.08;72.31;101796.80;1740291;82;21303;-60
2021/09/09 03:51:17;;;;;;;76.97;40.17;;;;;;;8.20;72.19;101800.51;1740099;82;21335;-60
2021/09/09 03:53:51;;;;;;;94.87;47.48;;;;;;;8.38;72.00;101798.25;1741165;82;21770;-60
2021/09/09 03:56:25;;;;;;;128.75;56.37;;;;;;;8.57;71.68;101803.28;1740088;82;21177;-60
2021/09/09 03:58:58;;;;;;;143.60;61.20;;;;;;;8.75;71.32;101796.55;1741680;82;21256;-60
2021/09/09 04:01:32;;;;;;;115.77;47.95;;;;;;;8.94;70.82;101798.95;1740108;82;21299;-61
2021/09/09 04:04:06;;;;;;;107.40;43.83;;;;;;;9.13;70.22;101803.48;1741132;82;21173;-61
2021/09/09 04:06:39;;;;;;;108.83;43.10;;;;;;;9.42;69.62;101802.63;1740177;82;21364;-61
2021/09/09 04:09:12;;;;;;;72.82;29.85;;;;;;;9.70;68.86;101799.18;1741252;82;21248;-62
2021/09/09 04:11:45;;;;;;;61.33;25.82;;;;;;;10.10;68.25;101801.02;1740032;82;21228;-62
2021/09/09 04:14:21;;;;;;;54.85;23.20;;;;;;;10.78;66.92;101796.67;1739451;82;21664;-62
2021/09/09 04:16:54;;;;;;;;;;;;;;;11.44;65.38;101797.04;1742129;82;21168;-61
2021/09/09 04:19:27;;;;;;;41.88;20.48;;;;;;;12.12;63.33;101791.84;1741402;82;20249;-61
2021/09/09 04:22:06;;;;;;;35.28;17.95;;;;;;;12.86;61.28;101796.06;1739336;82;21184;-61
2021/09/09 04:24:36;;;;;;;32.73;18.30;;;;;;;13.54;58.85;101797.96;1740918;82;21763;-62
2021/09/09 04:27:09;;;;;;;47.73;25.65;;;;;;;14.15;57.25;101786.47;1739874;82;21275;-64
2021/09/09 04:29:43;;;;;;;53.90;27.00;;;;;;;15.10;55.20;101790.13;1739079;82;21350;-64
2021/09/09 04:32:16;;;;;;;52.93;24.33;;;;;;;16.05;52.48;101789.82;1730009;82;21528;-63
2021/09/09 04:34:50;;;;;;;41.00;19.15;;;;;;;16.89;50.04;101784.00;1727029;82;21325;-61
2021/09/09 04:37:22;;;;;;;29.95;15.48;;;;;;;17.68;47.65;101790.72;1729043;81;21263;-61
2021/09/09 04:39:55;;;;;;;30.10;15.18;;;;;;;18.37;45.42;101784.93;1704690;81;21259;-60
2021/09/09 04:42:28;;;;;;;27.75;12.70;;;;;;;19.01;43.23;101782.92;1730544;82;21184;-59
2021/09/09 04:45:02;;;;;;;34.00;13.35;;;;;;;19.64;41.06;101782.72;1734518;80;21268;-59
2021/09/09 04:47:36;;;;;;;21.15;10.78;;;;;;;20.20;39.30;101776.83;1731515;81;21213;-59
2021/09/09 04:50:11;;;;;;;21.30;10.25;;;;;;;20.62;37.44;101772.29;1724512;81;21148;-63
2021/09/09 04:52:44;;;;;;;21.10;10.03;;;;;;;20.95;36.65;101776.63;1730139;83;21306;-60
2021/09/09 04:55:18;;;;;;;21.57;9.38;;;;;;;21.42;35.71;101777.61;1729215;82;21157;-61
2021/09/09 04:57:50;;;;;;;15.13;8.20;;;;;;;21.84;35.27;101777.83;1731445;82;21875;-59
2021/09/09 05:00:24;;;;;;;18.07;8.00;;;;;;;23.04;33.18;101770.14;1732208;81;21121;-61
2021/09/09 05:02:59;;;;;;;15.75;7.58;;;;;;;23.04;33.18;101770.14;1732649;81;21290;-62
2021/09/09 05:05:33;;;;;;;14.47;7.15;;;;;;;23.56;32.24;101769.64;1701446;82;21125;-60
2021/09/09 05:08:07;;;;;;;16.25;6.33;;;;;;;24.06;31.23;101776.89;1694597;83;21302;-63
2021/09/09 05:10:39;;;;;;;;;;;;;;;24.51;30.01;101766.41;1702949;83;21362;-61
2021/09/09 05:13:13;;;;;;;14.85;6.17;;;;;;;24.90;29.22;101758.79;1703247;83;20655;-61
2021/09/09 05:15:46;;;;;;;15.63;6.12;;;;;;;25.16;28.62;101767.54;1699392;83;21312;-62
2021/09/09 05:18:20;;;;;;;14.18;5.83;;;;;;;25.51;27.90;101771.93;1693133;83;21231;-62
2021/09/09 05:20:53;;;;;;;14.28;5.47;;;;;;;25.77;27.12;101773.42;1730477;81;21254;-62
2021/09/09 05:23:26;;;;;;;21.00;6.70;;;;;;;26.05;26.93;101776.05;1733067;81;21871;-61
2021/09/09 05:25:59;;;;;;;10.85;5.20;;;;;;;26.39;26.83;101778.64;1726788;81;21386;-62
2021/09/09 05:28:32;;;;;;;10.43;5.25;;;;;;;26.86;26.13;101765.64;1727879;81;21155;-65
2021/09/09 05:31:06;;;;;;;13.78;5.08;;;;;;;27.28;25.06;101767.89;1696441;83;21142;-68
2021/09/09 05:33:39;;;;;;;8.98;4.95;;;;;;;27.44;24.66;101767.19;1733882;80;21182;-62
2021/09/09 05:36:12;;;;;;;10.60;4.97;;;;;;;27.42;24.68;101761.19;1735289;81;21297;-64
2021/09/09 05:38:45;;;;;;;9.25;4.62;;;;;;;27.73;24.41;101757.28;1720678;81;21314;-63
2021/09/09 05:41:18;;;;;;;11.40;5.35;;;;;;;28.15;23.82;101758.05;1734621;81;21327;-64
2021/09/09 05:43:51;;;;;;;10.75;4.87;;;;;;;28.60;23.36;101754.80;1733989;81;21308;-64
2021/09/09 05:46:24;;;;;;;11.10;4.85;;;;;;;29.29;22.66;101756.83;1734533;81;21935;-65
2021/09/09 05:48:57;;;;;;;;;;;;;;;29.93;22.03;101757.67;1700392;82;21783;-62
2021/09/09 05:51:32;;;;;;;10.05;4.35;;;;;;;30.47;21.49;101751.87;1664819;84;20223;-62
2021/09/09 05:54:06;;;;;;;7.53;4.70;;;;;;;30.78;20.96;101746.19;1666213;84;21240;-64
2021/09/09 05:56:41;;;;;;;11.08;5.05;;;;;;;31.04;20.63;101743.59;1731655;81;21246;-65
2021/09/09 05:59:16;;;;;;;7.58;4.58;;;;;;;31.30;20.45;101741.75;1724879;81;21219;-63
2021/09/09 06:01:50;;;;;;;7.83;4.75;;;;;;;31.77;19.97;101735.73;1739601;81;21140;-62
2021/09/09 06:04:24;;;;;;;17.17;4.65;;;;;;;32.21;19.55;101733.66;1724664;81;21800;-66
2021/09/09 06:06:57;;;;;;;12.90;4.58;;;;;;;32.57;19.17;101737.85;1735061;81;21757;-62
2021/09/09 06:09:30;;;;;;;13.80;5.85;;;;;;;32.84;18.72;101735.31;1730323;81;21330;-63
2021/09/09 06:12:03;;;;;;;;;;;;;;;33.07;18.63;101727.84;1740830;81;21132;-62
2021/09/09 06:14:37;;;;;;;8.00;4.60;;;;;;;33.38;18.37;101729.61;1722163;81;20212;-61
2021/09/09 06:17:11;;;;;;;10.03;4.45;;;;;;;33.68;18.01;101736.27;1726522;82;21511;-62
2021/09/09 06:19:45;;;;;;;12.95;4.83;;;;;;;34.00;17.63;101735.02;1734351;81;21900;-68
2021/09/09 06:22:20;;;;;;;9.05;4.35;;;;;;;34.35;17.42;101727.77;1726302;81;21450;-62
2021/09/09 06:24:58;;;;;;;7.75;3.90;;;;;;;34.72;17.09;101728.68;1728426;81;21211;-62
2021/09/09 06:27:32;;;;;;;7.90;4.35;;;;;;;35.14;16.76;101717.82;1747084;80;21383;-61
2021/09/09 06:30:07;;;;;;;8.43;4.00;;;;;;;35.46;16.39;101723.99;1714129;81;21340;-61
2021/09/09 06:32:41;;;;;;;11.28;4.37;;;;;;;35.78;16.13;101722.48;1727824;81;21286;-63
2021/09/09 06:35:15;;;;;;;8.85;4.33;;;;;;;36.17;15.90;101724.25;1726810;81;21293;-61
2021/09/09 06:37:49;;;;;;;9.73;4.33;;;;;;;36.63;15.53;101724.58;1697429;83;21861;-62
2021/09/09 06:40:21;;;;;;;8.53;4.30;;;;;;;36.98;15.25;101720.47;1725604;81;21266;-63
2021/09/09 06:42:54;;;;;;;11.75;4.33;;;;;;;37.44;14.83;101728.55;1727890;81;21332;-62
2021/09/09 06:45:27;;;;;;;8.85;4.10;;;;;;;37.81;14.21;101722.64;1727563;81;21319;-62
2021/09/09 06:48:00;;;;;;;9.50;3.60;;;;;;;38.08;13.91;101724.41;1733480;81;21825;-63
2021/09/09 06:50:34;;;;;;;44.15;6.70;;;;;;;38.38;13.62;101722.28;1690670;83;21881;-65
2021/09/09 06:53:07;;;;;;;7.00;3.45;;;;;;;38.70;13.17;101726.39;1727134;82;21322;-64
2021/09/09 06:55:41;;;;;;;8.43;3.77;;;;;;;39.03;12.91;101724.98;1694701;83;21696;-63
2021/09/09 06:58:14;;;;;;;7.75;3.47;;;;;;;39.57;12.71;101719.72;1728597;81;21330;-62
2021/09/09 07:00:53;;;;;;;12.60;3.27;;;;;;;39.79;12.30;101717.81;1726215;81;21288;-62
2021/09/09 07:03:29;;;;;;;7.95;4.25;;;;;;;39.93;11.91;101710.48;1730126;81;21826;-64
2021/09/09 07:06:02;;;;;;;11.25;5.05;;;;;;;40.10;11.41;101721.19;1728271;80;21277;-64
2021/09/09 07:08:35;;;;;;;10.43;3.17;;;;;;;40.03;11.65;101716.64;1732138;81;21819;-64
2021/09/09 07:11:09;;;;;;;9.38;3.98;;;;;;;40.18;10.96;101708.17;1746444;81;21763;-63
2021/09/09 07:13:42;;;;;;;7.47;3.67;;;;;;;40.33;11.09;101712.05;1731329;81;21172;-67
2021/09/09 07:16:15;;;;;;;8.93;3.33;;;;;;;40.66;11.00;101710.69;1698086;82;21206;-69
2021/09/09 07:18:50;;;;;;;7.55;3.10;;;;;;;40.92;10.67;101707.75;1668615;84;21187;-65
2021/09/09 07:21:23;;;;;;;22.02;13.35;;;;;;;41.14;10.32;101705.67;1703161;83;21302;-61
2021/09/09 07:23:55;;;;;;;6.80;3.50;;;;;;;41.44;10.32;101706.47;1691658;83;21353;-66
2021/09/09 07:26:30;;;;;;;6.78;3.72;;;;;;;41.69;10.06;101700.98;1661386;85;21212;-60
2021/09/09 07:29:03;;;;;;;8.65;3.25;;;;;;;41.93;9.89;101701.52;1703149;83;21272;-62
2021/09/09 07:31:37;;;;;;;8.65;3.15;;;;;;;42.13;9.77;101699.70;1737111;81;21258;-66
2021/09/09 07:34:10;;;;;;;7.08;3.20;;;;;;;42.28;9.72;101695.75;1724216;81;22519;-63
2021/09/09 07:36:43;;;;;;;7.35;3.12;;;;;;;42.42;9.52;101700.62;1729826;81;21318;-64
2021/09/09 07:39:17;;;;;;;11.50;3.22;;;;;;;42.62;9.34;101700.09;1705422;83;21373;-63
2021/09/09 07:41:50;;;;;;;4.97;2.60;;;;;;;42.72;9.29;101690.19;1733636;82;21290;-65
2021/09/09 07:44:23;;;;;;;6.10;2.50;;;;;;;42.67;9.66;101698.03;1751837;81;22346;-65
2021/09/09 07:46:56;;;;;;;7.47;3.40;;;;;;;42.73;9.21;101691.83;1727011;81;21797;-68
2021/09/09 07:49:31;;;;;;;6.92;3.08;;;;;;;42.74;9.56;101686.55;1728462;81;21278;-64
2021/09/09 07:52:05;;;;;;;6.03;3.27;;;;;;;42.67;9.33;101682.88;1732068;81;21778;-66
2021/09/09 07:54:38;;;;;;;9.98;3.10;;;;;;;42.55;9.64;101690.92;1696256;82;21306;-68
2021/09/09 07:57:12;;;;;;;6.37;3.45;;;;;;;42.49;9.42;101683.88;1693488;84;21200;-68
2021/09/09 07:59:45;;;;;;;8.45;3.02;;;;;;;42.60;9.49;101682.52;1701376;83;21275;-62
2021/09/09 08:02:18;;;;;;;7.05;3.30;;;;;;;42.77;9.08;101680.41;1666292;84;21196;-67
2021/09/09 08:04:52;;;;;;;5.03;2.60;;;;;;;42.84;9.17;101672.50;1689250;83;21366;-64
2021/09/09 08:07:25;;;;;;;6.67;3.17;;;;;;;42.96;8.53;101663.66;1696558;83;21419;-66
2021/09/09 08:09:58;;;;;;;8.73;3.22;;;;;;;43.01;9.09;101663.52;1696509;83;21237;-68
2021/09/09 08:12:33;;;;;;;6.78;2.90;;;;;;;43.15;9.07;101662.81;1684691;84;21335;-62
2021/09/09 08:15:07;;;;;;;3.12;2.75;;;;;;;43.25;9.19;101659.77;1695152;83;21317;-64
2021/09/09 08:17:41;;;;;;;9.10;3.08;;;;;;;43.39;8.80;101648.88;1664347;83;21253;-61
2021/09/09 08:20:15;;;;;;;4.83;2.70;;;;;;;43.46;8.85;101645.63;1691250;83;21252;-63
2021/09/09 08:22:49;;;;;;;5.10;2.90;;;;;;;43.57;8.59;101644.76;1693508;83;21150;-63
2021/09/09 08:25:23;;;;;;;5.35;2.83;;;;;;;43.49;8.64;101637.50;1687680;83;21197;-66
2021/09/09 08:27:56;;;;;;;8.33;2.95;;;;;;;43.40;8.52;101641.39;1691768;83;21323;-63
2021/09/09 08:30:29;;;;;;;5.05;2.72;;;;;;;43.25;8.48;101641.29;1693271;83;21184;-68
2021/09/09 08:33:02;;;;;;;6.22;2.58;;;;;;;42.98;8.56;101633.84;1699943;83;21191;-65
2021/09/09 08:35:36;;;;;;;5.95;2.90;;;;;;;42.76;8.84;101628.64;1689288;83;21233;-63
2021/09/09 08:38:09;;;;;;;6.22;2.55;;;;;;;42.72;8.98;101631.80;1696654;83;21176;-70
2021/09/09 08:40:42;;;;;;;7.90;2.80;;;;;;;42.51;9.08;101627.16;1702106;83;21307;-65
2021/09/09 08:43:19;;;;;;;5.75;3.20;;;;;;;42.27;9.29;101630.25;1685587;83;21491;-65
2021/09/09 08:45:54;;;;;;;6.58;2.70;;;;;;;42.12;9.36;101629.27;1684145;84;21342;-63
2021/09/09 08:48:28;;;;;;;8.33;2.95;;;;;;;41.94;9.61;101628.88;1685531;83;22571;-68
2021/09/09 08:51:02;;;;;;;6.47;2.47;;;;;;;41.83;9.48;101618.67;1702675;83;21493;-63
2021/09/09 08:53:35;;;;;;;3.35;2.80;;;;;;;41.76;9.56;101610.61;1686832;84;21338;-63
2021/09/09 08:56:08;;;;;;;7.35;2.90;;;;;;;41.51;9.50;101612.01;1730696;80;21337;-63
2021/09/09 08:58:41;;;;;;;5.30;2.40;;;;;;;41.26;10.17;101608.42;1749256;80;21680;-62
2021/09/09 09:01:19;;;;;;;5.53;2.22;;;;;;;41.13;10.02;101605.16;1726169;81;21219;-60
2021/09/09 09:04:06;;;;;;;6.92;2.58;;;;;;;40.94;10.03;101603.33;1727613;81;21191;-63
2021/09/09 09:06:37;;;;;;;4.53;2.15;;;;;;;40.53;9.78;101601.12;1727402;81;21306;-64
2021/09/09 09:09:13;;;;;;;5.20;2.67;;;;;;;39.77;10.24;101604.30;1720927;82;21218;-63
2021/09/09 09:11:49;;;;;;;3.47;2.27;;;;;;;39.27;10.81;101605.84;1738199;81;21353;-64
2021/09/09 09:14:25;;;;;;;4.05;2.67;;;;;;;39.14;10.88;101598.88;1723232;81;21299;-64
2021/09/09 09:17:01;;;;;;;8.03;2.37;;;;;;;39.07;11.19;101605.52;1738556;81;21200;-65
2021/09/09 09:19:41;;;;;;;4.65;2.42;;;;;;;38.92;11.22;101598.06;1747399;81;21311;-65
2021/09/09 09:22:15;;;;;;;3.92;3.40;;;;;;;38.67;11.36;101595.03;1733687;81;21247;-66
2021/09/09 09:24:50;;;;;;;4.55;2.35;;;;;;;38.39;11.51;101596.70;1731373;81;21297;-65
2021/09/09 09:27:24;;;;;;;5.22;2.65;;;;;;;38.07;11.49;101593.69;1738146;82;21372;-69
2021/09/09 09:30:09;;;;;;;3.50;2.20;;;;;;;37.75;11.95;101598.30;1744449;80;21172;-69
2021/09/09 09:32:51;;;;;;;5.12;2.33;;;;;;;37.45;12.30;101594.39;1728321;81;21230;-68
2021/09/09 09:35:31;;;;;;;6.45;2.35;;;;;;;37.11;12.48;101597.02;1733191;80;21852;-67
2021/09/09 09:38:06;;;;;;;4.15;2.62;;;;;;;36.71;12.85;101591.66;1733768;81;21329;-65
2021/09/09 09:40:43;;;;;;;9.98;2.58;;;;;;;36.27;13.32;101590.10;1730017;81;21697;-70
2021/09/09 09:43:17;;;;;;;4.70;2.80;;;;;;;35.82;13.27;101588.17;1737170;81;21176;-67
2021/09/09 09:45:52;;;;;;;4.65;2.72;;;;;;;35.32;13.33;101581.78;1739017;81;21283;-65
2021/09/09 09:48:26;;;;;;;5.17;2.60;;;;;;;34.84;13.93;101582.92;1733561;80;21257;-65
2021/09/09 09:50:59;;;;;;;4.67;2.50;;;;;;;34.38;14.33;101579.08;1696533;82;21275;-66
2021/09/09 09:53:32;;;;;;;7.92;2.72;;;;;;;33.91;14.83;101580.32;1665971;84;21918;-68
2021/09/09 09:56:06;;;;;;;4.67;2.77;;;;;;;33.25;15.11;101574.19;1694908;83;21285;-67
2021/09/09 09:59:23;;;;;;;4.60;3.02;;;;;;;32.53;15.50;101568.05;1699374;83;21322;-66
2021/09/09 10:02:04;;;;;;;4.20;2.60;;;;;;;31.83;16.65;101570.42;1695399;83;21266;-66
2021/09/09 10:04:41;;;;;;;5.75;3.05;;;;;;;31.25;16.91;101563.05;1693715;83;21347;-67
2021/09/09 10:07:17;;;;;;;5.10;2.40;;;;;;;30.53;17.46;101567.16;1693558;83;21232;-67
2021/09/09 10:09:53;;;;;;;7.65;3.47;;;;;;;29.95;18.37;101565.20;1708563;83;21279;-68
2021/09/09 10:12:26;;;;;;;13.35;3.15;;;;;;;29.60;18.39;101566.95;1703262;83;21378;-66
2021/09/09 10:15:02;;;;;;;7.95;2.80;;;;;;;29.31;19.20;101567.76;1700492;83;21867;-67
2021/09/09 10:17:36;;;;;;;7.40;2.95;;;;;;;29.01;19.62;101569.05;1673331;84;21247;-68
2021/09/09 10:20:36;;;;;;;6.50;2.77;;;;;;;28.81;19.76;101567.09;1664148;83;21175;-67
2021/09/09 10:23:20;;;;;;;8.03;2.65;;;;;;;28.63;20.27;101554.45;1692295;83;21338;-67
2021/09/09 10:25:57;;;;;;;9.33;2.80;;;;;;;28.30;20.18;101553.08;1682734;83;21220;-65
2021/09/09 10:28:49;;;;;;;4.45;2.60;;;;;;;27.95;20.39;101545.97;1694907;84;21290;-70
2021/09/09 10:31:24;;;;;;;4.97;2.60;;;;;;;27.62;20.71;101544.86;1694157;83;21208;-68
2021/09/09 10:33:57;;;;;;;7.37;3.08;;;;;;;27.44;21.02;101539.91;1693779;83;21212;-72
2021/09/09 10:36:43;;;;;;;7.35;3.10;;;;;;;27.31;21.56;101538.07;1693735;83;21354;-70
2021/09/09 10:39:24;;;;;;;7.25;2.77;;;;;;;27.14;21.83;101529.67;1687817;83;22564;-70
2021/09/09 10:41:58;;;;;;;8.38;3.17;;;;;;;27.00;21.85;101540.17;1671857;84;21228;-70
2021/09/09 10:44:34;;;;;;;11.38;3.15;;;;;;;26.92;21.85;101538.23;1690633;83;21328;-69
2021/09/09 10:47:13;;;;;;;5.75;2.35;;;;;;;26.85;22.04;101532.88;1678963;84;21340;-67
2021/09/09 10:49:46;;;;;;;7.00;2.80;;;;;;;26.81;22.21;101530.83;1676426;84;21284;-64
2021/09/09 10:52:21;;;;;;;7.40;2.72;;;;;;;26.73;22.35;101533.19;1677873;85;21492;-68
2021/09/09 10:55:10;;;;;;;6.45;3.00;;;;;;;26.68;22.57;101535.68;1674449;85;21311;-68
2021/09/09 10:57:44;;;;;;;6.70;3.05;;;;;;;26.55;22.16;101531.70;1674746;84;21212;-69
2021/09/09 11:00:19;;;;;;;10.00;3.02;;;;;;;26.39;22.37;101528.92;1660476;85;21237;-66
2021/09/09 11:02:54;;;;;;;7.00;2.85;;;;;;;26.24;22.65;101518.11;1677309;84;21886;-68
2021/09/09 11:05:27;;;;;;;6.95;3.05;;;;;;;25.98;22.75;101510.33;1677721;85;21256;-68
2021/09/09 11:08:00;;;;;;;5.72;2.37;;;;;;;25.76;23.24;101512.08;1676648;84;21367;-66
2021/09/09 11:10:40;;;;;;;6.12;2.67;;;;;;;25.65;23.77;101511.36;1677452;85;21340;-68
2021/09/09 11:13:27;;;;;;;4.80;2.75;;;;;;;25.65;23.77;101505.99;1676797;84;21189;-71
2021/09/09 11:16:01;;;;;;;13.50;3.70;;;;;;;25.60;23.71;101498.56;1680728;84;21272;-68
2021/09/09 11:18:34;;;;;;;7.15;2.87;;;;;;;25.56;23.61;101499.14;1676791;84;21354;-69
2021/09/09 11:21:07;;;;;;;11.93;2.98;;;;;;;25.44;23.78;101486.86;1678000;85;21351;-70
2021/09/09 11:23:41;;;;;;;5.85;2.75;;;;;;;25.35;23.62;101488.05;1679779;85;21327;-69
2021/09/09 11:26:19;;;;;;;4.53;2.77;;;;;;;25.27;24.12;101492.24;1664559;84;21324;-69
2021/09/09 11:28:53;;;;;;;6.87;3.08;;;;;;;25.20;24.37;101488.21;1671000;85;21347;-67
2021/09/09 11:31:30;;;;;;;5.25;3.12;;;;;;;25.16;24.56;101475.42;1673569;84;21311;-68
2021/09/09 11:34:07;;;;;;;8.63;3.27;;;;;;;25.19;24.44;101483.89;1683237;84;21170;-65
2021/09/09 11:36:44;;;;;;;9.83;2.83;;;;;;;25.19;24.01;101458.44;1680822;84;21433;-65
2021/09/09 11:39:20;;;;;;;6.37;3.37;;;;;;;25.19;24.01;101458.44;1672676;85;21365;-67
2021/09/09 11:41:54;;;;;;;9.28;4.60;;;;;;;25.19;24.43;101458.44;1676885;85;21692;-70
2021/09/09 11:44:34;;;;;;;11.83;6.95;;;;;;;25.16;24.20;101452.64;1679283;85;21687;-71
2021/09/09 11:47:18;;;;;;;9.93;5.83;;;;;;;25.13;24.58;101454.37;1681717;83;21373;-69
2021/09/09 11:49:54;;;;;;;13.15;5.83;;;;;;;25.10;24.64;101451.58;1683428;83;21779;-70
2021/09/09 11:52:25;;;;;;;12.15;4.03;;;;;;;25.05;24.44;101439.84;1704568;82;21139;-71
2021/09/09 11:55:01;;;;;;;7.20;3.98;;;;;;;25.03;24.37;101445.92;1730977;81;22542;-70
2021/09/09 11:57:36;;;;;;;3.83;2.67;;;;;;;25.00;24.47;101440.45;1730149;81;21292;-71
2021/09/09 12:00:10;;;;;;;7.10;3.00;;;;;;;25.00;24.24;101435.59;1698235;83;21334;-66